Time;durP1;ratioP1;P1;durP2;ratioP2;P2;SDS_P1;SDS_P2;PMS_P1;PMS_P2;Temp;Humidity;BMP_temperature;BMP_pressure;BME280_temperature;BME280_humidity;BME280_pressure;Samples;Min_cycle;Max_cycle;Signal;HPM_P1;HPM_P2
2022/10/24 00:01:14;;;;;;;;;;;;;;;13.01;64.40;101555.13;4996588;28;19930;-83
2022/10/24 00:03:40;;;;;;;;;;;;;;;12.91;65.08;101550.84;4997167;28;19984;-83
2022/10/24 00:06:06;;;;;;;;;;;;;;;12.95;64.92;101538.75;5007926;28;20420;-83
2022/10/24 00:08:31;;;;;;;;;;;;;;;12.99;64.65;101537.41;5005773;28;20012;-83
2022/10/24 00:10:56;;;;;;;;;;;;;;;12.90;65.25;101523.00;4988586;28;20287;-83
2022/10/24 00:13:22;;;;;;;;;;;;;;;12.91;65.22;101526.56;5004873;28;19973;-82
2022/10/24 00:15:47;;;;;;;;;;;;;;;12.91;65.15;101519.28;4996141;28;19918;-84
2022/10/24 00:18:14;;;;;;;;;;;;;;;12.92;65.30;101522.84;5001851;28;19929;-84
2022/10/24 00:20:39;;;;;;;;;;;;;;;12.84;65.55;101529.00;5010445;28;20326;-83
2022/10/24 00:23:06;;;;;;;;;;;;;;;12.85;65.61;101526.16;5007981;28;20011;-82
2022/10/24 00:25:33;;;;;;;;;;;;;;;12.85;65.57;101531.56;5008173;28;20317;-85
2022/10/24 00:27:58;;;;;;;;;;;;;;;12.86;65.42;101525.16;5001181;28;20355;-82
2022/10/24 00:30:24;;;;;;;;;;;;;;;12.83;65.33;101517.38;5007296;28;20067;-82
2022/10/24 00:32:50;;;;;;;;;;;;;;;12.77;65.67;101525.25;5007306;28;20379;-82
2022/10/24 00:35:16;;;;;;;;;;;;;;;12.66;65.77;101524.44;5007032;28;19961;-84
2022/10/24 00:37:41;;;;;;;;;;;;;;;12.66;65.85;101527.13;4998128;28;20283;-82
2022/10/24 00:40:07;;;;;;;;;;;;;;;12.59;65.66;101534.16;5008769;28;19968;-83
2022/10/24 00:42:32;;;;;;;;;;;;;;;12.52;66.05;101532.22;5007493;28;19933;-84
2022/10/24 00:44:57;;;;;;;;;;;;;;;12.43;66.10;101539.38;5008812;28;20382;-82
2022/10/24 00:47:23;;;;;;;;;;;;;;;12.42;65.77;101533.13;5010687;28;20404;-83
2022/10/24 00:49:51;;;;;;;;;;;;;;;12.31;66.13;101540.59;5006290;28;19925;-82
2022/10/24 00:52:18;;;;;;;;;;;;;;;12.32;66.02;101536.91;5003762;28;20020;-83
2022/10/24 00:54:43;;;;;;;;;;;;;;;12.20;66.60;101533.56;5008115;28;19927;-83
2022/10/24 00:57:09;;;;;;;;;;;;;;;12.22;66.49;101529.72;4997520;28;19922;-83
2022/10/24 00:59:34;;;;;;;;;;;;;;;12.08;66.74;101537.44;5008842;28;19941;-84
2022/10/24 01:01:59;;;;;;;;;;;;;;;12.20;66.31;101536.28;5005274;28;20262;-84
2022/10/24 01:04:25;;;;;;;;;;;;;;;12.17;66.45;101540.09;5003224;28;19937;-85
2022/10/24 01:07:08;;;;;;;;;;;;;;;11.98;66.77;101530.25;4992134;28;19930;-84
2022/10/24 01:09:43;;;;;;;;;;;;;;;11.99;66.80;101528.44;4996017;28;20420;-83
2022/10/24 01:12:49;;;;;;;;;;;;;;;12.02;66.78;101531.66;4992743;28;20047;-84
2022/10/24 01:15:19;;;;;;;;;;;;;;;12.04;66.64;101540.44;4990297;28;19922;-83
2022/10/24 01:17:55;;;;;;;;;;;;;;;12.11;66.49;101537.16;4996115;28;19945;-83
2022/10/24 01:20:33;;;;;;;;;;;;;;;12.25;65.95;101542.06;4997686;28;19990;-83
2022/10/24 01:23:02;;;;;;;;;;;;;;;12.24;65.85;101534.94;4991962;28;19922;-83
2022/10/24 01:25:31;;;;;;;;;;;;;;;12.31;65.64;101530.66;4990657;28;20258;-83
2022/10/24 01:28:10;;;;;;;;;;;;;;;12.28;65.62;101530.97;4993443;28;21269;-84
2022/10/24 01:30:39;;;;;;;;;;;;;;;12.25;65.60;101521.31;4994242;28;19980;-83
2022/10/24 01:33:19;;;;;;;;;;;;;;;12.34;65.43;101533.06;4998043;28;19935;-84
2022/10/24 01:35:50;;;;;;;;;;;;;;;12.47;65.22;101535.38;4987087;28;19918;-83
2022/10/24 01:38:34;;;;;;;;;;;;;;;12.58;64.69;101527.06;4990137;28;19926;-81
2022/10/24 01:41:06;;;;;;;;;;;;;;;12.60;64.72;101524.25;4989472;28;19922;-82
2022/10/24 01:43:55;;;;;;;;;;;;;;;12.64;64.71;101525.59;4992581;28;19925;-83
2022/10/24 01:46:27;;;;;;;;;;;;;;;12.64;64.86;101525.59;4999042;28;19966;-82
2022/10/24 01:49:03;;;;;;;;;;;;;;;12.74;64.42;101526.41;5010284;28;19918;-83
2022/10/24 01:51:29;;;;;;;;;;;;;;;12.77;64.35;101526.06;4988098;28;20365;-82
2022/10/24 01:53:55;;;;;;;;;;;;;;;12.76;64.20;101512.72;4990934;28;20009;-82
2022/10/24 01:56:20;;;;;;;;;;;;;;;12.95;63.73;101522.53;4988715;28;19928;-83
2022/10/24 01:58:47;;;;;;;;;;;;;;;12.91;63.96;101524.69;4992676;28;19925;-82
2022/10/24 02:01:13;;;;;;;;;;;;;;;13.01;63.39;101527.31;4988360;28;19979;-84
2022/10/24 02:03:43;;;;;;;;;;;;;;;12.98;63.69;101528.47;4990808;28;20346;-81
2022/10/24 02:06:21;;;;;;;;;;;;;;;12.92;63.88;101528.22;4990544;28;20820;-82
2022/10/24 02:08:47;;;;;;;;;;;;;;;12.91;64.00;101531.94;4992526;28;19925;-82
2022/10/24 02:11:12;;;;;;;;;;;;;;;12.84;63.89;101529.00;4992731;28;19928;-82
2022/10/24 02:13:58;;;;;;;;;;;;;;;12.96;63.84;101535.03;4999410;28;19933;-82
2022/10/24 02:16:25;;;;;;;;;;;;;;;13.03;63.52;101528.84;4997996;28;19929;-83
2022/10/24 02:18:52;;;;;;;;;;;;;;;13.09;63.41;101530.09;4992175;28;19926;-83
2022/10/24 02:21:39;;;;;;;;;;;;;;;13.07;63.31;101538.31;4992972;28;19918;-84
2022/10/24 02:24:06;;;;;;;;;;;;;;;13.09;63.40;101539.03;4964484;28;19956;-82
2022/10/24 02:26:42;;;;;;;;;;;;;;;13.08;63.35;101534.59;4997946;28;20012;-82
2022/10/24 02:29:11;;;;;;;;;;;;;;;13.07;63.32;101542.88;4994925;28;19930;-82
2022/10/24 02:31:38;;;;;;;;;;;;;;;13.07;63.30;101540.19;4996220;28;20024;-82
2022/10/24 02:34:06;;;;;;;;;;;;;;;12.92;63.76;101539.03;4995932;28;19930;-82
2022/10/24 02:36:34;;;;;;;;;;;;;;;12.91;63.65;101545.44;4999785;28;20417;-82
2022/10/24 02:38:59;;;;;;;;;;;;;;;12.70;64.26;101540.34;4998231;28;20024;-82
2022/10/24 02:41:26;;;;;;;;;;;;;;;12.70;64.18;101541.19;4992323;28;20021;-82
2022/10/24 02:43:51;;;;;;;;;;;;;;;12.44;64.88;101547.31;4991330;28;20037;-82
2022/10/24 02:46:16;;;;;;;;;;;;;;;12.37;65.12;101540.84;4990797;28;20413;-82
2022/10/24 02:48:43;;;;;;;;;;;;;;;12.27;65.29;101547.28;4993156;28;19926;-82
2022/10/24 02:51:08;;;;;;;;;;;;;;;12.10;65.68;101548.94;4972697;28;20401;-83
2022/10/24 02:53:34;;;;;;;;;;;;;;;12.14;65.46;101551.19;4998610;28;19918;-81
2022/10/24 02:55:59;;;;;;;;;;;;;;;11.96;65.90;101551.13;4993638;28;19971;-82
2022/10/24 02:58:25;;;;;;;;;;;;;;;11.93;65.99;101556.81;4980800;28;19957;-84
2022/10/24 03:00:50;;;;;;;;;;;;;;;11.94;65.78;101549.56;5004907;28;20329;-82
2022/10/24 03:03:15;;;;;;;;;;;;;;;11.93;65.83;101551.41;5000735;28;19926;-82
2022/10/24 03:05:40;;;;;;;;;;;;;;;11.78;66.30;101547.50;4995114;28;19929;-82
2022/10/24 03:08:06;;;;;;;;;;;;;;;11.58;67.04;101552.06;4996118;28;19922;-82
2022/10/24 03:10:31;;;;;;;;;;;;;;;11.41;67.61;101548.28;4995171;28;20302;-84
2022/10/24 03:12:57;;;;;;;;;;;;;;;11.38;67.65;101553.97;4991551;28;20072;-82
2022/10/24 03:15:22;;;;;;;;;;;;;;;11.32;67.84;101538.38;4974409;28;20017;-83
2022/10/24 03:17:48;;;;;;;;;;;;;;;11.36;67.77;101540.66;4996860;28;19971;-82
2022/10/24 03:20:14;;;;;;;;;;;;;;;11.25;68.10;101548.03;4992664;28;19921;-83
2022/10/24 03:22:40;;;;;;;;;;;;;;;11.33;67.81;101540.94;4997301;28;20358;-82
2022/10/24 03:25:06;;;;;;;;;;;;;;;11.23;68.15;101539.25;4995473;28;19929;-82
2022/10/24 03:27:32;;;;;;;;;;;;;;;11.21;68.22;101539.38;4997513;28;20627;-82
2022/10/24 03:29:58;;;;;;;;;;;;;;;11.20;68.34;101541.22;4995166;28;19952;-82
2022/10/24 03:32:23;;;;;;;;;;;;;;;11.21;68.45;101539.38;5003166;28;19968;-81
2022/10/24 03:34:50;;;;;;;;;;;;;;;11.25;68.33;101537.25;5004577;28;20356;-82
2022/10/24 03:37:15;;;;;;;;;;;;;;;11.26;68.50;101537.13;5002355;28;19926;-81
2022/10/24 03:39:40;;;;;;;;;;;;;;;11.35;68.20;101532.69;4999969;28;19937;-81
2022/10/24 03:42:06;;;;;;;;;;;;;;;11.29;68.53;101533.28;4997512;28;19933;-82
2022/10/24 03:44:31;;;;;;;;;;;;;;;11.32;68.52;101538.38;4996862;28;20037;-82
2022/10/24 03:46:58;;;;;;;;;;;;;;;11.26;68.64;101533.56;5002458;28;19976;-80
2022/10/24 03:49:23;;;;;;;;;;;;;;;11.30;68.68;101529.59;5000940;28;19929;-81
2022/10/24 03:51:48;;;;;;;;;;;;;;;11.33;68.56;101523.91;5001565;28;19917;-80
2022/10/24 03:54:14;;;;;;;;;;;;;;;11.31;68.67;101525.94;5003245;28;19929;-82
2022/10/24 03:56:42;;;;;;;;;;;;;;;11.25;68.71;101518.41;5006045;28;19926;-82
2022/10/24 03:59:07;;;;;;;;;;;;;;;11.24;68.94;101531.03;5004218;28;20041;-83
2022/10/24 04:01:33;;;;;;;;;;;;;;;11.24;68.95;101535.53;5007341;28;20056;-86
2022/10/24 04:03:59;;;;;;;;;;;;;;;11.16;69.29;101534.44;5008472;28;19922;-82
2022/10/24 04:06:24;;;;;;;;;;;;;;;11.20;69.17;101535.00;5008670;28;19921;-83
2022/10/24 04:08:49;;;;;;;;;;;;;;;11.11;69.48;101535.88;5005156;28;19929;-82
2022/10/24 04:11:15;;;;;;;;;;;;;;;11.01;70.14;101533.19;5010272;28;19989;-82
2022/10/24 04:13:42;;;;;;;;;;;;;;;11.09;69.95;101529.75;5002334;28;19925;-83
2022/10/24 04:16:07;;;;;;;;;;;;;;;11.10;70.00;101532.31;5009877;28;19925;-83
2022/10/24 04:18:33;;;;;;;;;;;;;;;11.15;70.09;101524.66;5001632;28;19921;-84
2022/10/24 04:20:58;;;;;;;;;;;;;;;11.28;69.38;101527.03;5009048;28;20012;-84
2022/10/24 04:23:24;;;;;;;;;;;;;;;11.32;69.33;101522.22;5004881;28;20343;-83
2022/10/24 04:25:49;;;;;;;;;;;;;;;11.39;69.05;101515.28;5009727;28;19917;-83
2022/10/24 04:28:15;;;;;;;;;;;;;;;11.29;68.97;101515.28;5003117;28;19925;-83
2022/10/24 04:30:40;;;;;;;;;;;;;;;11.32;68.86;101517.69;5008889;28;19974;-81
2022/10/24 04:33:05;;;;;;;;;;;;;;;11.32;68.58;101522.22;5001512;28;19921;-82
2022/10/24 04:35:31;;;;;;;;;;;;;;;11.32;68.57;101520.38;4989985;28;19926;-82
2022/10/24 04:37:56;;;;;;;;;;;;;;;11.28;68.38;101529.72;5005540;28;19928;-83
2022/10/24 04:40:21;;;;;;;;;;;;;;;11.31;68.28;101531.31;5011795;28;20012;-83
2022/10/24 04:42:49;;;;;;;;;;;;;;;11.34;68.03;101541.78;5004517;28;20020;-82
2022/10/24 04:45:14;;;;;;;;;;;;;;;11.31;67.95;101547.47;5010085;28;19925;-83
2022/10/24 04:47:41;;;;;;;;;;;;;;;11.32;67.76;101552.69;5005911;28;19921;-83
2022/10/24 04:50:06;;;;;;;;;;;;;;;11.34;67.61;101547.16;5010134;28;19917;-83
2022/10/24 04:52:32;;;;;;;;;;;;;;;11.36;67.81;101553.25;5004865;28;19933;-82
2022/10/24 04:54:57;;;;;;;;;;;;;;;11.35;67.67;101555.09;5007823;28;20056;-84
2022/10/24 04:57:22;;;;;;;;;;;;;;;11.37;67.83;101568.41;5003873;28;19925;-81
2022/10/24 04:59:48;;;;;;;;;;;;;;;11.38;67.65;101570.97;5007178;28;19929;-83
2022/10/24 05:02:14;;;;;;;;;;;;;;;11.40;67.60;101579.75;5001626;28;19926;-82
2022/10/24 05:04:40;;;;;;;;;;;;;;;11.42;67.56;101576.91;5008022;28;19918;-82
2022/10/24 05:07:06;;;;;;;;;;;;;;;11.35;67.88;101571.22;5001418;28;20025;-84
2022/10/24 05:09:34;;;;;;;;;;;;;;;11.42;67.52;101576.91;5008325;28;19961;-84
2022/10/24 05:12:01;;;;;;;;;;;;;;;11.33;68.04;101577.75;4986788;28;19929;-82
2022/10/24 05:14:26;;;;;;;;;;;;;;;11.44;67.54;101583.00;5001227;28;19922;-81
2022/10/24 05:16:51;;;;;;;;;;;;;;;11.58;67.13;101587.94;4990192;28;20303;-82
2022/10/24 05:19:17;;;;;;;;;;;;;;;11.68;66.76;101582.50;4994199;28;19970;-83
2022/10/24 05:21:42;;;;;;;;;;;;;;;11.73;66.79;101590.16;5008333;28;19922;-82
2022/10/24 05:24:07;;;;;;;;;;;;;;;11.77;67.10;101587.03;4984999;28;19925;-82
2022/10/24 05:26:33;;;;;;;;;;;;;;;11.82;66.75;101579.38;5001330;28;20087;-83
2022/10/24 05:28:58;;;;;;;;;;;;;;;11.88;66.52;101582.50;5007524;28;20286;-82
2022/10/24 05:31:24;;;;;;;;;;;;;;;12.01;66.12;101572.22;5006513;28;19933;-81
2022/10/24 05:33:49;;;;;;;;;;;;;;;12.25;65.52;101569.03;5005312;28;19917;-85
2022/10/24 05:36:16;;;;;;;;;;;;;;;13.77;61.47;101558.28;4988346;28;19928;-84
2022/10/24 05:38:41;;;;;;;;;;;;;;;16.33;54.73;101564.56;4996717;28;19922;-83
2022/10/24 05:41:07;;;;;;;;;;;;;;;18.12;49.37;101553.25;5012707;28;19924;-84
2022/10/24 05:43:32;;;;;;;;;;;;;;;19.96;44.90;101568.06;5005154;28;19922;-82
2022/10/24 05:45:57;;;;;;;;;;;;;;;21.53;40.69;101568.13;5009797;28;20428;-82
2022/10/24 05:48:23;;;;;;;;;;;;;;;23.02;37.31;101566.38;5008263;28;19921;-81
2022/10/24 05:50:48;;;;;;;;;;;;;;;24.29;34.77;101561.34;5005782;28;19957;-84
2022/10/24 05:53:13;;;;;;;;;;;;;;;25.20;33.01;101572.41;5016581;28;19933;-86
2022/10/24 05:55:39;;;;;;;;;;;;;;;26.09;31.04;101564.88;5023190;28;19918;-84
2022/10/24 05:58:06;;;;;;;;;;;;;;;27.00;29.51;101568.88;5013164;28;19944;-84
2022/10/24 06:00:32;;;;;;;;;;;;;;;27.88;28.40;101570.06;5012096;28;19926;-85
2022/10/24 06:02:58;;;;;;;;;;;;;;;28.77;26.51;101574.47;5015765;28;19933;-83
2022/10/24 06:05:24;;;;;;;;;;;;;;;29.35;25.90;101573.94;5017076;28;19952;-83
2022/10/24 06:07:49;;;;;;;;;;;;;;;29.83;25.00;101594.25;5008874;28;19969;-86
2022/10/24 06:10:14;;;;;;;;;;;;;;;30.28;24.17;101585.38;5011054;28;20135;-85
2022/10/24 06:12:40;;;;;;;;;;;;;;;30.82;23.44;101591.63;5006210;28;19971;-87
2022/10/24 06:15:07;;;;;;;;;;;;;;;31.05;22.60;101582.81;5011485;28;20003;-86
2022/10/24 06:17:32;;;;;;;;;;;;;;;31.43;22.17;101588.94;5007906;28;19922;-86
2022/10/24 06:19:57;;;;;;;;;;;;;;;32.13;21.58;101597.47;5006862;28;19929;-87
2022/10/24 06:22:26;;;;;;;;;;;;;;;32.65;21.06;101589.72;5006127;28;20007;-90
2022/10/24 06:24:51;;;;;;;;;;;;;;;32.49;21.29;101600.06;5011458;28;19925;-87
2022/10/24 06:27:17;;;;;;;;;;;;;;;33.15;20.21;101589.69;5010704;28;19922;-87
2022/10/24 06:29:42;;;;;;;;;;;;;;;33.74;19.74;101599.78;5013861;28;20338;-90
2022/10/24 06:32:08;;;;;;;;;;;;;;;33.82;19.44;101599.13;5009550;28;19921;-89
2022/10/24 06:34:34;;;;;;;;;;;;;;;34.37;19.10;101603.50;5016965;28;20003;-89
2022/10/24 06:37:00;;;;;;;;;;;;;;;34.67;18.31;101597.53;5007534;28;19936;-88
2022/10/24 06:39:26;;;;;;;;;;;;;;;34.88;18.43;101597.25;5012803;28;19987;-90
2022/10/24 06:41:51;;;;;;;;;;;;;;;34.88;18.54;101602.81;5009984;28;20358;-90
2022/10/24 06:44:17;;;;;;;;;;;;;;;34.92;18.25;101603.06;5012037;28;20341;-87
2022/10/24 06:46:43;;;;;;;;;;;;;;;35.39;18.04;101602.03;5006883;28;19932;-89
2022/10/24 06:49:08;;;;;;;;;;;;;;;35.55;17.97;101604.56;5009913;28;19984;-87
2022/10/24 06:51:36;;;;;;;;;;;;;;;36.04;17.34;101598.31;5009371;28;19985;-88
2022/10/24 06:54:02;;;;;;;;;;;;;;;36.33;17.39;101591.59;5005611;28;19944;-87
2022/10/24 06:56:27;;;;;;;;;;;;;;;36.79;16.48;101595.34;5011100;28;19918;-87
2022/10/24 06:58:53;;;;;;;;;;;;;;;37.00;16.95;101582.50;5009147;28;19925;-86
2022/10/24 07:01:19;;;;;;;;;;;;;;;36.63;17.12;101584.50;5010508;28;19929;-84
2022/10/24 07:03:45;;;;;;;;;;;;;;;36.98;16.93;101573.59;5003685;28;20044;-84
2022/10/24 07:06:14;;;;;;;;;;;;;;;37.27;16.68;101566.72;5011865;28;19921;-83
2022/10/24 07:08:39;;;;;;;;;;;;;;;37.31;16.12;101570.53;4993340;28;19921;-83
2022/10/24 07:11:06;;;;;;;;;;;;;;;37.38;16.33;101576.50;5013592;28;19917;-86
2022/10/24 07:13:31;;;;;;;;;;;;;;;37.39;16.32;101580.97;5010031;28;19922;-83
2022/10/24 07:15:57;;;;;;;;;;;;;;;37.68;16.15;101574.06;5011737;28;20242;-84
2022/10/24 07:18:22;;;;;;;;;;;;;;;37.53;16.62;101573.34;5011506;28;20381;-85
2022/10/24 07:20:49;;;;;;;;;;;;;;;37.68;16.08;101579.69;5013318;28;19933;-85
2022/10/24 07:23:15;;;;;;;;;;;;;;;37.98;16.17;101578.00;5008962;28;19932;-84
2022/10/24 07:25:40;;;;;;;;;;;;;;;38.11;15.98;101582.66;5014537;28;20013;-84
2022/10/24 07:28:07;;;;;;;;;;;;;;;38.38;15.60;101580.75;5008403;28;19976;-83
2022/10/24 07:30:32;;;;;;;;;;;;;;;38.25;15.90;101582.53;5025394;28;20381;-85
2022/10/24 07:32:58;;;;;;;;;;;;;;;38.37;15.76;101577.09;5009822;28;19925;-86
2022/10/24 07:35:26;;;;;;;;;;;;;;;38.16;15.87;101576.06;5012189;28;19932;-84
2022/10/24 07:37:54;;;;;;;;;;;;;;;38.35;15.72;101576.63;5013783;28;19922;-83
2022/10/24 07:40:19;;;;;;;;;;;;;;;38.33;15.94;101578.94;5010342;28;19917;-84
2022/10/24 07:42:44;;;;;;;;;;;;;;;38.66;15.58;101575.69;5012350;28;19921;-83
2022/10/24 07:45:10;;;;;;;;;;;;;;;38.80;15.22;101583.97;5013108;28;19917;-87
2022/10/24 07:47:36;;;;;;;;;;;;;;;38.68;15.09;101579.00;5011156;28;19913;-85
2022/10/24 07:50:01;;;;;;;;;;;;;;;39.10;14.99;101579.31;5012791;28;19922;-89
2022/10/24 07:52:26;;;;;;;;;;;;;;;38.83;14.94;101575.66;5012988;28;20049;-86
2022/10/24 07:54:53;;;;;;;;;;;;;;;39.10;14.91;101570.06;5009379;28;19925;-87
2022/10/24 07:57:18;;;;;;;;;;;;;;;39.20;14.65;101567.72;5006863;28;19925;-88
2022/10/24 07:59:44;;;;;;;;;;;;;;;39.41;14.64;101572.69;4997631;28;20333;-84
2022/10/24 08:02:11;;;;;;;;;;;;;;;39.95;14.19;101580.59;4986216;28;20298;-86
2022/10/24 08:04:37;;;;;;;;;;;;;;;40.29;13.86;101573.94;4979981;28;20275;-86
2022/10/24 08:07:03;;;;;;;;;;;;;;;40.47;13.36;101578.28;4995907;28;19921;-87
2022/10/24 08:09:28;;;;;;;;;;;;;;;40.72;13.12;101586.94;5016421;28;19983;-87
2022/10/24 08:11:53;;;;;;;;;;;;;;;40.54;13.51;101576.94;5009642;28;19975;-85
2022/10/24 08:14:19;;;;;;;;;;;;;;;41.07;13.84;101575.31;4990605;28;19961;-84
2022/10/24 08:16:45;;;;;;;;;;;;;;;40.95;13.53;101572.44;5016611;28;20043;-84
2022/10/24 08:19:12;;;;;;;;;;;;;;;41.09;13.24;101562.53;5021949;28;19928;-86
2022/10/24 08:21:37;;;;;;;;;;;;;;;41.39;13.02;101564.38;5011593;28;20377;-89
2022/10/24 08:24:03;;;;;;;;;;;;;;;41.79;12.89;101560.91;5010927;28;19922;-90
2022/10/24 08:26:28;;;;;;;;;;;;;;;42.00;12.68;101561.66;5011625;28;19923;-89
2022/10/24 08:28:54;;;;;;;;;;;;;;;41.41;12.82;101562.03;4990380;28;20221;-88
2022/10/24 08:31:20;;;;;;;;;;;;;;;40.54;13.36;101562.84;5002930;28;20005;-87
2022/10/24 08:33:45;;;;;;;;;;;;;;;41.00;13.17;101558.13;5003539;28;19944;-87
2022/10/24 08:36:13;;;;;;;;;;;;;;;41.65;13.00;101562.09;5011589;28;20024;-86
2022/10/24 08:38:40;;;;;;;;;;;;;;;42.73;12.30;101548.53;4998979;28;19932;-85
2022/10/24 08:41:09;;;;;;;;;;;;;;;43.11;11.41;101550.88;5008255;28;19983;-85
2022/10/24 08:43:35;;;;;;;;;;;;;;;43.00;11.91;101542.09;5001381;28;19933;-85
2022/10/24 08:46:04;;;;;;;;;;;;;;;43.61;11.16;101542.91;5006822;28;19921;-83
2022/10/24 08:48:50;;;;;;;;;;;;;;;44.15;11.02;101542.19;5006642;28;20339;-87
2022/10/24 08:51:29;;;;;;;;;;;;;;;44.17;11.22;101547.50;5006273;28;19922;-85
2022/10/24 08:53:57;;;;;;;;;;;;;;;44.49;10.66;101534.09;5001802;28;19917;-86
2022/10/24 08:56:23;;;;;;;;;;;;;;;45.17;10.03;101541.09;5003841;28;19924;-84
2022/10/24 08:58:50;;;;;;;;;;;;;;;45.74;9.68;101531.97;5001917;28;19921;-85
2022/10/24 09:01:20;;;;;;;;;;;;;;;45.23;9.67;101548.13;5010057;28;19971;-85
2022/10/24 09:03:49;;;;;;;;;;;;;;;45.77;9.68;101537.69;5004428;28;19922;-85
2022/10/24 09:06:20;;;;;;;;;;;;;;;44.86;10.32;101539.28;5010073;28;19922;-85
2022/10/24 09:08:51;;;;;;;;;;;;;;;44.07;10.79;101537.59;5007327;28;20032;-85
2022/10/24 09:11:40;;;;;;;;;;;;;;;42.74;11.86;101538.91;5008782;28;19929;-85
2022/10/24 09:14:13;;;;;;;;;;;;;;;42.16;13.24;101542.78;4972448;28;19921;-86
2022/10/24 09:16:41;;;;;;;;;;;;;;;41.42;13.86;101536.31;5009418;28;19924;-85
2022/10/24 09:19:08;;;;;;;;;;;;;;;42.23;13.30;101535.72;5006140;28;19991;-85
2022/10/24 09:21:33;;;;;;;;;;;;;;;41.76;13.64;101532.22;5012369;28;19922;-85
2022/10/24 09:23:59;;;;;;;;;;;;;;;42.18;12.88;101531.16;5002923;28;20005;-84
2022/10/24 09:26:26;;;;;;;;;;;;;;;41.65;13.25;101528.22;5008266;28;19924;-84
2022/10/24 09:28:53;;;;;;;;;;;;;;;40.91;13.91;101528.03;5003595;28;19976;-85
2022/10/24 09:31:20;;;;;;;;;;;;;;;41.33;13.57;101527.94;5008749;28;19926;-85
2022/10/24 09:33:46;;;;;;;;;;;;;;;40.95;13.72;101519.69;4999796;28;19921;-86
2022/10/24 09:36:14;;;;;;;;;;;;;;;41.89;12.94;101516.13;5008196;28;19976;-87
2022/10/24 09:38:39;;;;;;;;;;;;;;;41.62;13.55;101516.81;5007760;28;19921;-87
2022/10/24 09:41:06;;;;;;;;;;;;;;;40.17;15.13;101518.34;5001704;28;20358;-91
2022/10/24 09:43:37;;;;;;;;;;;;;;;39.92;15.36;101520.16;4996925;28;19921;-87
2022/10/24 09:46:07;;;;;;;;;;;;;;;39.52;15.69;101512.03;5001227;28;19917;-86
2022/10/24 09:48:35;;;;;;;;;;;;;;;39.78;15.92;101513.91;5002324;28;20396;-86
2022/10/24 09:51:03;;;;;;;;;;;;;;;40.45;15.46;101515.00;5008038;28;20008;-87
2022/10/24 09:53:35;;;;;;;;;;;;;;;40.35;15.42;101510.63;4991708;28;19983;-88
2022/10/24 09:56:07;;;;;;;;;;;;;;;40.32;15.98;101505.69;5007608;28;20006;-89
2022/10/24 09:58:34;;;;;;;;;;;;;;;41.10;15.67;101501.31;5006754;28;19922;-88
2022/10/24 10:01:05;;;;;;;;;;;;;;;40.21;17.02;101504.41;5008592;28;19924;-88
2022/10/24 10:03:32;;;;;;;;;;;;;;;41.25;16.40;101500.66;5006561;28;19974;-89
2022/10/24 10:05:58;;;;;;;;;;;;;;;41.44;16.42;101493.63;5009894;28;20004;-88
2022/10/24 10:08:31;;;;;;;;;;;;;;;40.95;16.75;101493.50;5016475;28;19948;-87
2022/10/24 10:10:58;;;;;;;;;;;;;;;41.82;16.28;101501.78;5014149;28;19928;-89
2022/10/24 10:13:24;;;;;;;;;;;;;;;41.19;16.99;101485.13;4991661;28;19921;-89
2022/10/24 10:16:11;;;;;;;;;;;;;;;40.87;17.34;101486.78;5003756;28;19921;-88
2022/10/24 10:18:45;;;;;;;;;;;;;;;39.41;18.06;101482.66;5001135;28;19925;-86
2022/10/24 10:21:17;;;;;;;;;;;;;;;39.65;18.03;101482.88;5003800;28;19918;-86
2022/10/24 10:23:45;;;;;;;;;;;;;;;40.25;16.50;101477.22;5002976;28;19932;-88
2022/10/24 10:26:14;;;;;;;;;;;;;;;39.58;17.00;101476.94;5008244;28;19938;-88
2022/10/24 10:28:42;;;;;;;;;;;;;;;40.86;15.78;101480.34;5002605;28;19921;-87
2022/10/24 10:31:09;;;;;;;;;;;;;;;39.84;16.71;101467.56;5014563;28;19917;-86
2022/10/24 10:33:51;;;;;;;;;;;;;;;38.76;17.88;101470.56;5000345;28;19988;-88
2022/10/24 10:36:24;;;;;;;;;;;;;;;36.09;20.60;101477.06;5003407;28;20370;-87
2022/10/24 10:38:50;;;;;;;;;;;;;;;37.24;20.47;101474.84;5013005;28;19921;-88
2022/10/24 10:41:15;;;;;;;;;;;;;;;38.57;18.96;101476.53;5012587;28;19918;-91
2022/10/24 10:43:46;;;;;;;;;;;;;;;38.46;18.83;101475.19;5007366;28;19971;-87
2022/10/24 10:46:18;;;;;;;;;;;;;;;38.56;18.60;101470.06;5017924;28;19972;-89
2022/10/24 10:48:48;;;;;;;;;;;;;;;39.09;18.03;101470.84;5001644;28;19944;-87
2022/10/24 10:51:16;;;;;;;;;;;;;;;39.31;17.76;101474.56;5014156;28;19932;-87
2022/10/24 10:53:50;;;;;;;;;;;;;;;39.56;17.54;101453.94;5003243;28;19928;-88
2022/10/24 10:56:16;;;;;;;;;;;;;;;40.05;16.83;101468.41;4999035;28;19988;-88
2022/10/24 10:58:41;;;;;;;;;;;;;;;40.30;16.62;101462.94;5006720;28;19925;-86
2022/10/24 11:01:25;;;;;;;;;;;;;;;37.88;19.35;101457.59;5008842;28;20036;-89
2022/10/24 11:03:53;;;;;;;;;;;;;;;37.98;19.43;101458.13;5007067;28;19921;-89
2022/10/24 11:06:31;;;;;;;;;;;;;;;38.00;19.55;101458.66;5016008;28;19918;-88
2022/10/24 11:09:08;;;;;;;;;;;;;;;38.30;18.81;101447.59;4996065;28;19989;-88
2022/10/24 11:11:37;;;;;;;;;;;;;;;38.47;18.36;101448.78;5010274;28;19918;-87
2022/10/24 11:14:11;;;;;;;;;;;;;;;38.38;18.45;101448.75;4992774;28;20370;-88
2022/10/24 11:16:36;;;;;;;;;;;;;;;35.49;22.01;101450.03;5013620;28;19933;-86
2022/10/24 11:19:04;;;;;;;;;;;;;;;34.78;23.92;101453.00;5008051;28;19918;-87
2022/10/24 11:21:31;;;;;;;;;;;;;;;34.83;23.84;101446.50;4995313;28;19980;-90
2022/10/24 11:24:01;;;;;;;;;;;;;;;35.48;22.55;101445.59;5006978;28;19948;-87
2022/10/24 11:26:30;;;;;;;;;;;;;;;35.55;21.78;101448.81;4979661;28;19918;-91
2022/10/24 11:29:01;;;;;;;;;;;;;;;33.28;25.05;101444.13;4989835;28;20366;-87
2022/10/24 11:31:34;;;;;;;;;;;;;;;32.74;26.50;101447.97;5012693;28;20313;-87
2022/10/24 11:34:03;;;;;;;;;;;;;;;31.89;26.10;101443.44;4986298;28;19917;-89
2022/10/24 11:36:34;;;;;;;;;;;;;;;31.83;27.52;101436.28;5006673;28;19917;-91
2022/10/24 11:39:06;;;;;;;;;;;;;;;30.99;29.83;101439.53;5001312;28;19979;-88
2022/10/24 11:41:33;;;;;;;;;;;;;;;30.47;30.93;101435.91;5012446;28;19924;-89
2022/10/24 11:44:01;;;;;;;;;;;;;;;29.77;31.77;101424.34;5010564;28;19928;-88
2022/10/24 11:46:48;;;;;;;;;;;;;;;30.17;31.07;101427.50;4999397;28;20016;-87
2022/10/24 11:49:23;;;;;;;;;;;;;;;29.51;31.80;101428.09;5014733;28;19929;-89
2022/10/24 11:52:00;;;;;;;;;;;;;;;28.12;34.07;101428.84;4997294;28;19921;-89
2022/10/24 11:54:47;;;;;;;;;;;;;;;28.09;34.48;101427.44;4991066;28;20008;-87
2022/10/24 11:57:15;;;;;;;;;;;;;;;27.61;35.17;101419.94;5010245;28;19921;-89
2022/10/24 12:00:04;;;;;;;;;;;;;;;27.20;35.95;101413.84;4997830;28;20011;-88
2022/10/24 12:02:48;;;;;;;;;;;;;;;26.63;37.21;101420.38;5014612;28;20273;-90
2022/10/24 12:05:40;;;;;;;;;;;;;;;25.89;38.37;101421.19;5008399;28;19918;-91
2022/10/24 12:08:06;;;;;;;;;;;;;;;25.87;38.48;101423.34;4994649;28;19980;-87
2022/10/24 12:10:37;;;;;;;;;;;;;;;25.66;38.61;101417.41;5014837;28;19917;-89
2022/10/24 12:13:08;;;;;;;;;;;;;;;25.56;38.59;101413.59;5007016;28;19921;-87
2022/10/24 12:15:57;;;;;;;;;;;;;;;25.34;39.38;101411.47;4999175;28;20342;-87
2022/10/24 12:18:31;;;;;;;;;;;;;;;24.94;39.68;101409.44;4997365;28;20024;-87
2022/10/24 12:21:03;;;;;;;;;;;;;;;24.96;40.68;101412.78;5001994;28;20298;-88
2022/10/24 12:23:30;;;;;;;;;;;;;;;24.72;41.37;101400.06;5001916;28;20010;-86
2022/10/24 12:26:02;;;;;;;;;;;;;;;24.84;41.48;101403.66;5013528;28;19972;-88
2022/10/24 12:28:28;;;;;;;;;;;;;;;24.43;42.33;101408.13;4998589;28;19921;-86
2022/10/24 12:31:13;;;;;;;;;;;;;;;24.33;42.46;101402.38;5003631;28;19972;-88
2022/10/24 12:33:38;;;;;;;;;;;;;;;24.39;42.38;101412.41;4996925;28;19928;-87
2022/10/24 12:36:07;;;;;;;;;;;;;;;24.14;42.67;101410.66;5021091;28;19921;-87
2022/10/24 12:38:32;;;;;;;;;;;;;;;24.10;42.48;101414.09;5026482;28;19953;-89
2022/10/24 12:41:04;;;;;;;;;;;;;;;24.05;41.87;101408.47;5024408;28;19906;-87
2022/10/24 12:43:41;;;;;;;;;;;;;;;24.16;40.66;101410.41;5036487;28;19924;-86